Atlantic City International Airport
KACY : now visible

Airfield :











YOU CAN JOIN US ON...

 
LOGIN :

Register | Disclaimer

   EN    FR    IT 

 









Legend :    VFR   Marginal VFR   IFR   Intensive IFR   Very Intensive IFR
Visi :
Ceiling :
>= 8 km
>= 3000ft
5 to 8 km
1000 to 3000 ft
1500m to 5 km
500 to 1000 ft
800 to 1500m
200 to 500 ft
< 800m
< 200 ft
Symbols :   Thunderstorms  Fog  Heavy snow  Heavy precipitations  Wind > 20 kt






- Airport Elevation : 75 ft
- IATA code : ACY


KACY - Atlantic City International

CURRENT METAR :
  • 042254Z 12005KT 10SM CLR 26/20 A2992 RMK AO2 SLP130 T02560200

EXPIRED METARs :
  • 042154Z 14007KT 10SM CLR 26/20 A2992 RMK AO2 SLP130 T02610200
  • 042054Z 12007KT 10SM CLR 28/21 A2992 RMK AO2 SLP131 T02780211 57004

TAF KACY
Valid from the 05 at 00:00 until the 06 at 00:00 UTC


042320Z 0500/0524 14005KT P6SM FEW080
FM050500 VRB03KT P6SM FEW080
TEMPO 0508/0512 5SM BR
FM051200 26004KT P6SM SCT050
FM051700 20008KT P6SM SCT050
KZDC FIR / North America



MET'MAP, your aeronautical weather chart ! - Copyright ORBIFLY December 2007 - Disclaimer

ORBIFLY MET'MAP TEAM :

Programming & Development : Alexandra Zaïnal
Concept & original design : Baudouin d'Aumeries
Assistance for programming : Marc-Olivier Méhu
Technical & hardware support : Manuel Goepfert

Contact : metmap@orbifly.com




SOURCES & CREDITS :

   NOAA       Earth
Advisory